US-1047 weather

CLOSED Braman Heliport
West Palm Beach, Florida, United States

Public forecast

Using degrees Fahrenheit for public forecast. Weather courtesy of forecast.io.

Closest aviation weather report (METAR) to Braman Heliport

Closest report is Palm Beach International Airport, 5.3 nm (9.8 km) SSW. Retrieved 2019/11/14 06:53 UTC (59 minutes ago):

KPBI 140653Z 06011KT 10SM SCT027 SCT036 BKN065 24/19 A3003 RMK AO2 RAB45E51 SLP168 P0000 T02440194

Closest aviation forecast (TAF) to Braman Heliport

Closest forecast is Palm Beach International Airport, 5.3 nm (9.8 km) SSW. Retrieved 2019/11/14 06:58 UTC (54 minutes ago):

TAF KPBI 140551Z 1406/1506 06014G24KT P6SM SCT030 SCT050 BKN100 TEMPO 1406/1410 -SHRA BKN030 BKN060 FM141400 10014G24KT P6SM VCSH SCT025 BKN050 BKN100 FM142100 11010KT P6SM VCSH SCT025 BKN040 BKN100 FM150300 15007KT P6SM SCT040 BKN100